KLVM/LVM METAR and TAF weather

Enter ICAO airport designator
Station Type Date Time Source
KLVM METAR 2020/07/11 16:53 UTC NOAA

KLVM 111653Z AUTO 27007KT 10SM CLR 23/08 A3023 RMK AO2 SLP192 T02330078


Station Type Date Time Source
KLVM Decoded METAR 2020/07/11 16:53 UTC NOAA

LIVINGSTON MISSION FIELD, MT, United States (KLVM) 45-42N 110-26W 1418M
Jul 11, 2020 - 12:53 PM EDT / 2020.07.11 1653 UTC
Wind: from the W (270 degrees) at 8 MPH (7 KT):0
Visibility: 10 mile(s):0
Sky conditions: clear
Temperature: 73.9 F (23.3 C)
Dew Point: 46.0 F (7.8 C)
Relative Humidity: 36%
Pressure (altimeter): 30.23 in. Hg (1023 hPa)
ob: KLVM 111653Z AUTO 27007KT 10SM CLR 23/08 A3023 RMK AO2 SLP192 T02330078
cycle: 17

Station Type Date Time Source
KLVM TAF 2020/07/11 12:22 UTC NOAA

TAF KLVM 111120Z 1112/1212 VRB05KT P6SM SKC
FM120200 11011KT P6SM SKC

Example: see airport list